sensor_id;sensor_type;location;lat;lon;timestamp;P1;durP1;ratioP1;P2;durP2;ratioP2
21601;SDS011;10963;50.934;4.668;2023-05-10T00:00:59;16.17;;;8.57;;
21601;SDS011;10963;50.934;4.668;2023-05-10T00:03:27;13.03;;;7.77;;
21601;SDS011;10963;50.934;4.668;2023-05-10T00:05:53;16.00;;;7.73;;
21601;SDS011;10963;50.934;4.668;2023-05-10T00:08:21;11.57;;;7.77;;
21601;SDS011;10963;50.934;4.668;2023-05-10T00:10:52;14.83;;;7.67;;
21601;SDS011;10963;50.934;4.668;2023-05-10T00:13:18;14.60;;;8.33;;
21601;SDS011;10963;50.934;4.668;2023-05-10T00:15:46;19.60;;;7.83;;
21601;SDS011;10963;50.934;4.668;2023-05-10T00:18:12;16.87;;;7.17;;
21601;SDS011;10963;50.934;4.668;2023-05-10T00:20:39;12.70;;;6.60;;
21601;SDS011;10963;50.934;4.668;2023-05-10T00:23:05;13.83;;;6.57;;
21601;SDS011;10963;50.934;4.668;2023-05-10T00:25:31;14.33;;;7.17;;
21601;SDS011;10963;50.934;4.668;2023-05-10T00:27:59;14.17;;;6.73;;
21601;SDS011;10963;50.934;4.668;2023-05-10T00:30:26;13.53;;;7.07;;
21601;SDS011;10963;50.934;4.668;2023-05-10T00:32:52;14.90;;;7.53;;
21601;SDS011;10963;50.934;4.668;2023-05-10T00:35:17;13.77;;;6.20;;
21601;SDS011;10963;50.934;4.668;2023-05-10T00:37:43;12.13;;;6.83;;
21601;SDS011;10963;50.934;4.668;2023-05-10T00:40:10;13.27;;;6.87;;
21601;SDS011;10963;50.934;4.668;2023-05-10T00:42:38;14.40;;;7.60;;
21601;SDS011;10963;50.934;4.668;2023-05-10T00:45:09;15.23;;;7.93;;
21601;SDS011;10963;50.934;4.668;2023-05-10T00:47:34;15.10;;;7.10;;
21601;SDS011;10963;50.934;4.668;2023-05-10T00:50:02;14.43;;;7.47;;
21601;SDS011;10963;50.934;4.668;2023-05-10T00:52:30;15.00;;;7.17;;
21601;SDS011;10963;50.934;4.668;2023-05-10T00:54:56;23.47;;;7.53;;
21601;SDS011;10963;50.934;4.668;2023-05-10T00:57:22;14.13;;;7.80;;
21601;SDS011;10963;50.934;4.668;2023-05-10T00:59:48;18.13;;;8.83;;
21601;SDS011;10963;50.934;4.668;2023-05-10T01:02:14;23.90;;;8.93;;
21601;SDS011;10963;50.934;4.668;2023-05-10T01:04:42;20.70;;;9.03;;
21601;SDS011;10963;50.934;4.668;2023-05-10T01:07:08;16.83;;;7.90;;
21601;SDS011;10963;50.934;4.668;2023-05-10T01:09:34;20.33;;;8.57;;
21601;SDS011;10963;50.934;4.668;2023-05-10T01:12:02;18.90;;;7.93;;
21601;SDS011;10963;50.934;4.668;2023-05-10T01:14:28;15.87;;;7.60;;
21601;SDS011;10963;50.934;4.668;2023-05-10T01:16:57;18.30;;;7.97;;
21601;SDS011;10963;50.934;4.668;2023-05-10T01:19:26;16.77;;;8.37;;
21601;SDS011;10963;50.934;4.668;2023-05-10T01:33:01;22.40;;;8.33;;
21601;SDS011;10963;50.934;4.668;2023-05-10T01:43:28;18.27;;;9.50;;
21601;SDS011;10963;50.934;4.668;2023-05-10T01:46:05;17.80;;;9.57;;
21601;SDS011;10963;50.934;4.668;2023-05-10T01:48:45;23.70;;;9.10;;
21601;SDS011;10963;50.934;4.668;2023-05-10T01:51:19;18.27;;;9.20;;
21601;SDS011;10963;50.934;4.668;2023-05-10T01:53:48;18.50;;;8.83;;
21601;SDS011;10963;50.934;4.668;2023-05-10T01:56:16;15.47;;;8.40;;
21601;SDS011;10963;50.934;4.668;2023-05-10T01:58:47;16.83;;;8.80;;
21601;SDS011;10963;50.934;4.668;2023-05-10T02:01:17;16.20;;;8.50;;
21601;SDS011;10963;50.934;4.668;2023-05-10T02:03:48;19.50;;;9.10;;
21601;SDS011;10963;50.934;4.668;2023-05-10T02:06:20;16.73;;;9.80;;
21601;SDS011;10963;50.934;4.668;2023-05-10T02:08:48;22.20;;;9.77;;
21601;SDS011;10963;50.934;4.668;2023-05-10T02:11:15;18.97;;;9.77;;
21601;SDS011;10963;50.934;4.668;2023-05-10T02:13:46;18.80;;;10.10;;
21601;SDS011;10963;50.934;4.668;2023-05-10T02:16:19;20.07;;;10.00;;
21601;SDS011;10963;50.934;4.668;2023-05-10T02:18:50;22.47;;;9.70;;
21601;SDS011;10963;50.934;4.668;2023-05-10T02:21:20;18.30;;;8.73;;
21601;SDS011;10963;50.934;4.668;2023-05-10T02:23:50;23.33;;;10.63;;
21601;SDS011;10963;50.934;4.668;2023-05-10T02:26:17;23.27;;;10.27;;
21601;SDS011;10963;50.934;4.668;2023-05-10T02:28:49;19.73;;;9.83;;
21601;SDS011;10963;50.934;4.668;2023-05-10T02:31:19;22.73;;;10.03;;
21601;SDS011;10963;50.934;4.668;2023-05-10T02:33:46;19.73;;;10.80;;
21601;SDS011;10963;50.934;4.668;2023-05-10T02:36:15;23.87;;;10.47;;
21601;SDS011;10963;50.934;4.668;2023-05-10T02:38:42;22.40;;;11.20;;
21601;SDS011;10963;50.934;4.668;2023-05-10T02:41:09;21.07;;;11.53;;
21601;SDS011;10963;50.934;4.668;2023-05-10T02:43:36;22.97;;;11.40;;
21601;SDS011;10963;50.934;4.668;2023-05-10T02:46:05;26.03;;;12.17;;
21601;SDS011;10963;50.934;4.668;2023-05-10T02:48:30;21.60;;;11.17;;
21601;SDS011;10963;50.934;4.668;2023-05-10T02:51:00;24.90;;;11.67;;
21601;SDS011;10963;50.934;4.668;2023-05-10T02:53:31;23.67;;;12.00;;
21601;SDS011;10963;50.934;4.668;2023-05-10T02:56:00;21.90;;;10.10;;
21601;SDS011;10963;50.934;4.668;2023-05-10T02:58:32;22.87;;;11.93;;
21601;SDS011;10963;50.934;4.668;2023-05-10T03:00:59;24.33;;;10.50;;
21601;SDS011;10963;50.934;4.668;2023-05-10T03:03:25;19.70;;;10.53;;
21601;SDS011;10963;50.934;4.668;2023-05-10T03:05:51;23.43;;;10.93;;
21601;SDS011;10963;50.934;4.668;2023-05-10T03:08:20;21.47;;;10.47;;
21601;SDS011;10963;50.934;4.668;2023-05-10T03:11:32;22.83;;;10.67;;
21601;SDS011;10963;50.934;4.668;2023-05-10T03:16:43;22.83;;;10.73;;
21601;SDS011;10963;50.934;4.668;2023-05-10T03:19:15;23.40;;;11.57;;
21601;SDS011;10963;50.934;4.668;2023-05-10T03:21:50;24.73;;;11.60;;
21601;SDS011;10963;50.934;4.668;2023-05-10T03:24:20;29.60;;;12.40;;
21601;SDS011;10963;50.934;4.668;2023-05-10T03:26:48;25.97;;;11.90;;
21601;SDS011;10963;50.934;4.668;2023-05-10T03:29:15;25.30;;;11.67;;
21601;SDS011;10963;50.934;4.668;2023-05-10T03:31:42;26.93;;;12.87;;
21601;SDS011;10963;50.934;4.668;2023-05-10T03:34:08;28.73;;;12.07;;
21601;SDS011;10963;50.934;4.668;2023-05-10T03:36:33;31.63;;;12.00;;
21601;SDS011;10963;50.934;4.668;2023-05-10T03:39:02;23.60;;;11.37;;
21601;SDS011;10963;50.934;4.668;2023-05-10T03:41:27;27.33;;;12.67;;
21601;SDS011;10963;50.934;4.668;2023-05-10T03:43:54;25.10;;;11.47;;
21601;SDS011;10963;50.934;4.668;2023-05-10T03:46:19;24.00;;;11.43;;
21601;SDS011;10963;50.934;4.668;2023-05-10T03:48:45;24.83;;;11.63;;
21601;SDS011;10963;50.934;4.668;2023-05-10T03:51:11;25.87;;;10.47;;
21601;SDS011;10963;50.934;4.668;2023-05-10T03:53:36;26.30;;;11.63;;
21601;SDS011;10963;50.934;4.668;2023-05-10T03:56:07;23.13;;;12.17;;
21601;SDS011;10963;50.934;4.668;2023-05-10T03:58:32;24.00;;;11.47;;
21601;SDS011;10963;50.934;4.668;2023-05-10T04:00:58;24.30;;;11.53;;
21601;SDS011;10963;50.934;4.668;2023-05-10T04:03:24;25.27;;;12.37;;
21601;SDS011;10963;50.934;4.668;2023-05-10T04:05:57;28.33;;;11.93;;
21601;SDS011;10963;50.934;4.668;2023-05-10T04:08:28;27.73;;;12.60;;
21601;SDS011;10963;50.934;4.668;2023-05-10T04:10:54;34.63;;;13.87;;
21601;SDS011;10963;50.934;4.668;2023-05-10T04:13:29;27.70;;;12.27;;
21601;SDS011;10963;50.934;4.668;2023-05-10T04:15:55;26.17;;;12.27;;
21601;SDS011;10963;50.934;4.668;2023-05-10T04:18:23;25.03;;;12.23;;
21601;SDS011;10963;50.934;4.668;2023-05-10T04:20:48;29.77;;;13.10;;
21601;SDS011;10963;50.934;4.668;2023-05-10T04:23:18;28.03;;;13.53;;
21601;SDS011;10963;50.934;4.668;2023-05-10T04:25:48;31.37;;;14.07;;
21601;SDS011;10963;50.934;4.668;2023-05-10T04:28:14;32.97;;;14.27;;
21601;SDS011;10963;50.934;4.668;2023-05-10T04:30:40;33.37;;;14.40;;
21601;SDS011;10963;50.934;4.668;2023-05-10T04:33:08;31.60;;;13.97;;
21601;SDS011;10963;50.934;4.668;2023-05-10T04:35:36;31.63;;;13.93;;
21601;SDS011;10963;50.934;4.668;2023-05-10T04:38:07;30.33;;;13.63;;
21601;SDS011;10963;50.934;4.668;2023-05-10T04:40:35;37.27;;;15.33;;
21601;SDS011;10963;50.934;4.668;2023-05-10T04:43:01;36.63;;;14.67;;
21601;SDS011;10963;50.934;4.668;2023-05-10T04:45:29;33.83;;;15.13;;
21601;SDS011;10963;50.934;4.668;2023-05-10T04:47:54;41.47;;;16.43;;
21601;SDS011;10963;50.934;4.668;2023-05-10T04:50:20;43.37;;;16.30;;
21601;SDS011;10963;50.934;4.668;2023-05-10T04:52:46;39.07;;;16.47;;
21601;SDS011;10963;50.934;4.668;2023-05-10T04:55:11;40.37;;;15.60;;
21601;SDS011;10963;50.934;4.668;2023-05-10T04:57:39;47.13;;;18.33;;
21601;SDS011;10963;50.934;4.668;2023-05-10T05:00:10;57.87;;;19.60;;
21601;SDS011;10963;50.934;4.668;2023-05-10T05:02:41;49.30;;;19.33;;
21601;SDS011;10963;50.934;4.668;2023-05-10T05:05:08;52.73;;;18.70;;
21601;SDS011;10963;50.934;4.668;2023-05-10T05:07:34;51.03;;;20.30;;
21601;SDS011;10963;50.934;4.668;2023-05-10T05:10:06;51.77;;;18.47;;
21601;SDS011;10963;50.934;4.668;2023-05-10T05:12:32;50.77;;;18.90;;
21601;SDS011;10963;50.934;4.668;2023-05-10T05:14:58;48.27;;;18.27;;
21601;SDS011;10963;50.934;4.668;2023-05-10T05:17:24;54.57;;;17.83;;
21601;SDS011;10963;50.934;4.668;2023-05-10T05:19:50;39.77;;;16.87;;
21601;SDS011;10963;50.934;4.668;2023-05-10T05:22:16;44.77;;;17.00;;
21601;SDS011;10963;50.934;4.668;2023-05-10T05:24:42;48.50;;;17.07;;
21601;SDS011;10963;50.934;4.668;2023-05-10T05:27:10;42.10;;;16.70;;
21601;SDS011;10963;50.934;4.668;2023-05-10T05:29:35;46.37;;;16.90;;
21601;SDS011;10963;50.934;4.668;2023-05-10T05:32:01;41.63;;;17.30;;
21601;SDS011;10963;50.934;4.668;2023-05-10T05:34:29;41.13;;;16.70;;
21601;SDS011;10963;50.934;4.668;2023-05-10T05:36:54;44.63;;;18.00;;
21601;SDS011;10963;50.934;4.668;2023-05-10T05:39:25;40.07;;;16.50;;
21601;SDS011;10963;50.934;4.668;2023-05-10T05:41:51;36.67;;;15.37;;
21601;SDS011;10963;50.934;4.668;2023-05-10T05:44:22;36.83;;;15.50;;
21601;SDS011;10963;50.934;4.668;2023-05-10T05:46:50;38.93;;;16.53;;
21601;SDS011;10963;50.934;4.668;2023-05-10T05:49:16;40.27;;;16.57;;
21601;SDS011;10963;50.934;4.668;2023-05-10T05:51:43;39.53;;;15.57;;
21601;SDS011;10963;50.934;4.668;2023-05-10T05:54:09;37.63;;;15.37;;
21601;SDS011;10963;50.934;4.668;2023-05-10T05:56:38;41.50;;;16.10;;
21601;SDS011;10963;50.934;4.668;2023-05-10T05:59:03;36.20;;;15.03;;
21601;SDS011;10963;50.934;4.668;2023-05-10T06:01:31;43.03;;;17.20;;
21601;SDS011;10963;50.934;4.668;2023-05-10T06:03:57;38.73;;;15.03;;
21601;SDS011;10963;50.934;4.668;2023-05-10T06:06:27;33.57;;;15.33;;
21601;SDS011;10963;50.934;4.668;2023-05-10T06:08:54;39.63;;;16.23;;
21601;SDS011;10963;50.934;4.668;2023-05-10T06:11:20;39.17;;;15.30;;
21601;SDS011;10963;50.934;4.668;2023-05-10T06:13:48;38.83;;;17.10;;
21601;SDS011;10963;50.934;4.668;2023-05-10T06:16:16;33.30;;;14.27;;
21601;SDS011;10963;50.934;4.668;2023-05-10T06:18:42;34.47;;;14.87;;
21601;SDS011;10963;50.934;4.668;2023-05-10T06:21:10;31.43;;;15.17;;
21601;SDS011;10963;50.934;4.668;2023-05-10T06:23:38;37.73;;;15.13;;
21601;SDS011;10963;50.934;4.668;2023-05-10T06:26:03;26.43;;;14.17;;
21601;SDS011;10963;50.934;4.668;2023-05-10T06:28:31;30.80;;;14.77;;
21601;SDS011;10963;50.934;4.668;2023-05-10T06:30:59;33.03;;;15.13;;
21601;SDS011;10963;50.934;4.668;2023-05-10T06:33:28;28.27;;;14.30;;
21601;SDS011;10963;50.934;4.668;2023-05-10T06:35:53;28.67;;;14.33;;
21601;SDS011;10963;50.934;4.668;2023-05-10T06:38:19;28.63;;;12.70;;
21601;SDS011;10963;50.934;4.668;2023-05-10T06:40:49;30.30;;;13.70;;
21601;SDS011;10963;50.934;4.668;2023-05-10T06:43:15;26.30;;;13.30;;
21601;SDS011;10963;50.934;4.668;2023-05-10T06:45:41;28.23;;;13.50;;
21601;SDS011;10963;50.934;4.668;2023-05-10T06:48:07;29.90;;;14.07;;
21601;SDS011;10963;50.934;4.668;2023-05-10T06:50:33;32.03;;;14.40;;
21601;SDS011;10963;50.934;4.668;2023-05-10T06:53:01;28.70;;;14.17;;
21601;SDS011;10963;50.934;4.668;2023-05-10T06:55:29;26.37;;;13.03;;
21601;SDS011;10963;50.934;4.668;2023-05-10T06:57:57;29.07;;;13.87;;
21601;SDS011;10963;50.934;4.668;2023-05-10T07:00:23;31.00;;;13.37;;
21601;SDS011;10963;50.934;4.668;2023-05-10T07:02:52;30.90;;;13.90;;
21601;SDS011;10963;50.934;4.668;2023-05-10T07:05:17;28.07;;;13.77;;
21601;SDS011;10963;50.934;4.668;2023-05-10T07:07:46;31.97;;;14.33;;
21601;SDS011;10963;50.934;4.668;2023-05-10T07:10:12;29.83;;;13.73;;
21601;SDS011;10963;50.934;4.668;2023-05-10T07:12:37;28.40;;;14.00;;
21601;SDS011;10963;50.934;4.668;2023-05-10T07:15:03;27.77;;;13.60;;
21601;SDS011;10963;50.934;4.668;2023-05-10T07:17:30;26.63;;;13.57;;
21601;SDS011;10963;50.934;4.668;2023-05-10T07:19:55;23.60;;;11.33;;
21601;SDS011;10963;50.934;4.668;2023-05-10T07:22:24;22.80;;;11.63;;
21601;SDS011;10963;50.934;4.668;2023-05-10T07:24:52;22.03;;;10.87;;
21601;SDS011;10963;50.934;4.668;2023-05-10T07:27:23;23.13;;;10.57;;
21601;SDS011;10963;50.934;4.668;2023-05-10T07:29:48;16.80;;;9.03;;
21601;SDS011;10963;50.934;4.668;2023-05-10T07:32:14;16.20;;;8.20;;
21601;SDS011;10963;50.934;4.668;2023-05-10T07:34:40;14.73;;;7.03;;
21601;SDS011;10963;50.934;4.668;2023-05-10T07:37:08;13.73;;;6.30;;
21601;SDS011;10963;50.934;4.668;2023-05-10T07:39:33;17.43;;;6.27;;
21601;SDS011;10963;50.934;4.668;2023-05-10T07:42:02;12.43;;;6.90;;
21601;SDS011;10963;50.934;4.668;2023-05-10T07:44:28;14.97;;;7.23;;
21601;SDS011;10963;50.934;4.668;2023-05-10T07:46:54;12.37;;;5.70;;
21601;SDS011;10963;50.934;4.668;2023-05-10T07:49:21;9.97;;;4.60;;
21601;SDS011;10963;50.934;4.668;2023-05-10T07:51:49;13.73;;;5.73;;
21601;SDS011;10963;50.934;4.668;2023-05-10T07:54:15;8.20;;;5.23;;
21601;SDS011;10963;50.934;4.668;2023-05-10T07:56:40;11.10;;;5.67;;
21601;SDS011;10963;50.934;4.668;2023-05-10T07:59:14;9.97;;;5.20;;
21601;SDS011;10963;50.934;4.668;2023-05-10T08:01:40;13.73;;;6.10;;
21601;SDS011;10963;50.934;4.668;2023-05-10T08:04:09;13.83;;;5.60;;
21601;SDS011;10963;50.934;4.668;2023-05-10T08:06:34;15.80;;;7.23;;
21601;SDS011;10963;50.934;4.668;2023-05-10T08:09:01;14.80;;;7.30;;
21601;SDS011;10963;50.934;4.668;2023-05-10T08:11:29;14.13;;;7.97;;
21601;SDS011;10963;50.934;4.668;2023-05-10T08:13:58;19.67;;;8.13;;
21601;SDS011;10963;50.934;4.668;2023-05-10T08:16:26;16.57;;;7.83;;
21601;SDS011;10963;50.934;4.668;2023-05-10T08:18:52;18.23;;;8.30;;
21601;SDS011;10963;50.934;4.668;2023-05-10T08:21:20;16.63;;;6.50;;
21601;SDS011;10963;50.934;4.668;2023-05-10T08:23:50;14.80;;;6.80;;
21601;SDS011;10963;50.934;4.668;2023-05-10T08:26:16;15.57;;;7.93;;
21601;SDS011;10963;50.934;4.668;2023-05-10T08:28:41;18.40;;;8.30;;
21601;SDS011;10963;50.934;4.668;2023-05-10T08:31:07;16.37;;;7.57;;
21601;SDS011;10963;50.934;4.668;2023-05-10T08:33:35;14.43;;;7.17;;
21601;SDS011;10963;50.934;4.668;2023-05-10T08:36:03;19.00;;;7.77;;
21601;SDS011;10963;50.934;4.668;2023-05-10T08:38:29;13.83;;;7.13;;
21601;SDS011;10963;50.934;4.668;2023-05-10T08:40:57;16.37;;;7.67;;
21601;SDS011;10963;50.934;4.668;2023-05-10T08:43:29;15.00;;;6.43;;
21601;SDS011;10963;50.934;4.668;2023-05-10T08:45:59;14.20;;;6.63;;
21601;SDS011;10963;50.934;4.668;2023-05-10T08:48:31;14.10;;;6.37;;
21601;SDS011;10963;50.934;4.668;2023-05-10T08:50:59;17.23;;;6.70;;
21601;SDS011;10963;50.934;4.668;2023-05-10T08:53:27;11.20;;;6.60;;
21601;SDS011;10963;50.934;4.668;2023-05-10T08:56:02;11.40;;;7.17;;
21601;SDS011;10963;50.934;4.668;2023-05-10T08:58:29;15.43;;;6.70;;
21601;SDS011;10963;50.934;4.668;2023-05-10T09:00:54;15.23;;;6.70;;
21601;SDS011;10963;50.934;4.668;2023-05-10T09:03:20;10.87;;;6.17;;
21601;SDS011;10963;50.934;4.668;2023-05-10T09:05:46;13.27;;;6.60;;
21601;SDS011;10963;50.934;4.668;2023-05-10T09:08:13;14.17;;;7.20;;
21601;SDS011;10963;50.934;4.668;2023-05-10T09:10:41;11.97;;;6.40;;
21601;SDS011;10963;50.934;4.668;2023-05-10T09:13:09;11.27;;;6.33;;
21601;SDS011;10963;50.934;4.668;2023-05-10T09:15:36;15.77;;;6.90;;
21601;SDS011;10963;50.934;4.668;2023-05-10T09:18:05;9.97;;;5.67;;
21601;SDS011;10963;50.934;4.668;2023-05-10T09:20:33;12.70;;;6.37;;
21601;SDS011;10963;50.934;4.668;2023-05-10T09:23:01;14.83;;;6.93;;
21601;SDS011;10963;50.934;4.668;2023-05-10T09:25:27;15.57;;;7.43;;
21601;SDS011;10963;50.934;4.668;2023-05-10T09:27:53;13.90;;;6.80;;
21601;SDS011;10963;50.934;4.668;2023-05-10T09:32:54;13.13;;;6.53;;
21601;SDS011;10963;50.934;4.668;2023-05-10T09:35:24;10.20;;;5.63;;
21601;SDS011;10963;50.934;4.668;2023-05-10T09:37:53;14.43;;;6.63;;
21601;SDS011;10963;50.934;4.668;2023-05-10T09:40:23;13.27;;;6.30;;
21601;SDS011;10963;50.934;4.668;2023-05-10T09:42:54;12.73;;;5.93;;
21601;SDS011;10963;50.934;4.668;2023-05-10T09:45:32;10.47;;;5.27;;
21601;SDS011;10963;50.934;4.668;2023-05-10T09:48:03;13.13;;;6.00;;
21601;SDS011;10963;50.934;4.668;2023-05-10T09:50:29;11.90;;;5.70;;
21601;SDS011;10963;50.934;4.668;2023-05-10T09:52:59;8.53;;;5.37;;
21601;SDS011;10963;50.934;4.668;2023-05-10T09:58:05;10.27;;;4.33;;
21601;SDS011;10963;50.934;4.668;2023-05-10T10:00:39;9.23;;;4.63;;
21601;SDS011;10963;50.934;4.668;2023-05-10T10:03:05;8.17;;;4.63;;
21601;SDS011;10963;50.934;4.668;2023-05-10T10:05:36;11.47;;;5.00;;
21601;SDS011;10963;50.934;4.668;2023-05-10T10:08:08;7.97;;;4.60;;
21601;SDS011;10963;50.934;4.668;2023-05-10T10:10:33;7.30;;;4.30;;
21601;SDS011;10963;50.934;4.668;2023-05-10T10:13:01;10.77;;;5.67;;
21601;SDS011;10963;50.934;4.668;2023-05-10T10:15:27;11.33;;;5.07;;
21601;SDS011;10963;50.934;4.668;2023-05-10T10:17:55;10.30;;;5.33;;
21601;SDS011;10963;50.934;4.668;2023-05-10T10:20:21;9.83;;;4.87;;
21601;SDS011;10963;50.934;4.668;2023-05-10T10:22:49;8.47;;;4.67;;
21601;SDS011;10963;50.934;4.668;2023-05-10T10:25:15;8.70;;;4.70;;
21601;SDS011;10963;50.934;4.668;2023-05-10T10:27:45;8.07;;;4.50;;
21601;SDS011;10963;50.934;4.668;2023-05-10T10:36:03;5.47;;;3.87;;
21601;SDS011;10963;50.934;4.668;2023-05-10T10:55:06;6.70;;;3.30;;
21601;SDS011;10963;50.934;4.668;2023-05-10T10:57:55;5.07;;;3.67;;
21601;SDS011;10963;50.934;4.668;2023-05-10T11:03:16;3.57;;;2.83;;
21601;SDS011;10963;50.934;4.668;2023-05-10T11:05:46;4.07;;;2.80;;
21601;SDS011;10963;50.934;4.668;2023-05-10T11:10:49;4.37;;;2.90;;
21601;SDS011;10963;50.934;4.668;2023-05-10T11:16:12;5.33;;;2.47;;
21601;SDS011;10963;50.934;4.668;2023-05-10T11:18:38;5.40;;;2.30;;
21601;SDS011;10963;50.934;4.668;2023-05-10T11:21:08;3.37;;;2.70;;
21601;SDS011;10963;50.934;4.668;2023-05-10T11:23:51;5.47;;;3.13;;
21601;SDS011;10963;50.934;4.668;2023-05-10T11:26:21;3.47;;;2.30;;
21601;SDS011;10963;50.934;4.668;2023-05-10T11:28:55;3.87;;;2.37;;
21601;SDS011;10963;50.934;4.668;2023-05-10T11:31:20;4.53;;;3.03;;
21601;SDS011;10963;50.934;4.668;2023-05-10T11:33:52;5.30;;;2.53;;
21601;SDS011;10963;50.934;4.668;2023-05-10T11:36:35;5.80;;;2.87;;
21601;SDS011;10963;50.934;4.668;2023-05-10T11:39:05;3.20;;;2.27;;
21601;SDS011;10963;50.934;4.668;2023-05-10T11:41:31;3.20;;;2.23;;
21601;SDS011;10963;50.934;4.668;2023-05-10T11:43:59;4.83;;;2.73;;
21601;SDS011;10963;50.934;4.668;2023-05-10T11:46:26;3.97;;;2.63;;
21601;SDS011;10963;50.934;4.668;2023-05-10T11:48:53;4.17;;;2.67;;
21601;SDS011;10963;50.934;4.668;2023-05-10T11:51:25;3.20;;;2.63;;
21601;SDS011;10963;50.934;4.668;2023-05-10T11:53:52;5.73;;;2.70;;
21601;SDS011;10963;50.934;4.668;2023-05-10T11:56:19;3.83;;;2.47;;
21601;SDS011;10963;50.934;4.668;2023-05-10T11:58:49;5.67;;;2.60;;
21601;SDS011;10963;50.934;4.668;2023-05-10T12:01:20;3.43;;;2.60;;
21601;SDS011;10963;50.934;4.668;2023-05-10T12:03:47;4.97;;;3.00;;
21601;SDS011;10963;50.934;4.668;2023-05-10T12:06:17;4.77;;;2.67;;
21601;SDS011;10963;50.934;4.668;2023-05-10T12:08:46;2.90;;;2.37;;
21601;SDS011;10963;50.934;4.668;2023-05-10T12:11:13;3.93;;;3.03;;
21601;SDS011;10963;50.934;4.668;2023-05-10T12:13:42;4.43;;;2.87;;
21601;SDS011;10963;50.934;4.668;2023-05-10T12:16:22;5.60;;;2.77;;
21601;SDS011;10963;50.934;4.668;2023-05-10T12:18:52;3.47;;;2.77;;
21601;SDS011;10963;50.934;4.668;2023-05-10T12:21:21;3.70;;;2.80;;
21601;SDS011;10963;50.934;4.668;2023-05-10T12:23:51;4.80;;;2.97;;
21601;SDS011;10963;50.934;4.668;2023-05-10T12:26:18;3.57;;;2.60;;
21601;SDS011;10963;50.934;4.668;2023-05-10T12:28:49;4.03;;;2.83;;
21601;SDS011;10963;50.934;4.668;2023-05-10T12:31:15;4.00;;;2.60;;
21601;SDS011;10963;50.934;4.668;2023-05-10T12:33:42;3.93;;;2.37;;
21601;SDS011;10963;50.934;4.668;2023-05-10T12:36:14;2.97;;;2.47;;
21601;SDS011;10963;50.934;4.668;2023-05-10T12:38:42;4.13;;;2.40;;
21601;SDS011;10963;50.934;4.668;2023-05-10T12:41:18;3.73;;;3.00;;
21601;SDS011;10963;50.934;4.668;2023-05-10T12:43:46;5.53;;;2.50;;
21601;SDS011;10963;50.934;4.668;2023-05-10T12:46:16;3.57;;;2.67;;
21601;SDS011;10963;50.934;4.668;2023-05-10T12:48:43;3.57;;;2.53;;
21601;SDS011;10963;50.934;4.668;2023-05-10T12:51:09;4.73;;;2.37;;
21601;SDS011;10963;50.934;4.668;2023-05-10T12:53:41;2.87;;;2.57;;
21601;SDS011;10963;50.934;4.668;2023-05-10T12:56:09;3.57;;;2.60;;
21601;SDS011;10963;50.934;4.668;2023-05-10T12:58:34;2.57;;;2.27;;
21601;SDS011;10963;50.934;4.668;2023-05-10T13:01:00;3.97;;;2.30;;
21601;SDS011;10963;50.934;4.668;2023-05-10T13:03:26;2.97;;;2.67;;
21601;SDS011;10963;50.934;4.668;2023-05-10T13:05:52;4.43;;;3.23;;
21601;SDS011;10963;50.934;4.668;2023-05-10T13:08:17;3.03;;;2.70;;
21601;SDS011;10963;50.934;4.668;2023-05-10T13:10:43;4.47;;;2.90;;
21601;SDS011;10963;50.934;4.668;2023-05-10T13:13:09;4.50;;;3.03;;
21601;SDS011;10963;50.934;4.668;2023-05-10T13:15:35;4.57;;;3.27;;
21601;SDS011;10963;50.934;4.668;2023-05-10T13:18:01;5.80;;;3.20;;
21601;SDS011;10963;50.934;4.668;2023-05-10T13:20:29;5.13;;;3.00;;
21601;SDS011;10963;50.934;4.668;2023-05-10T13:22:55;3.73;;;2.77;;
21601;SDS011;10963;50.934;4.668;2023-05-10T13:25:20;3.80;;;3.00;;
21601;SDS011;10963;50.934;4.668;2023-05-10T13:27:46;4.50;;;2.73;;
21601;SDS011;10963;50.934;4.668;2023-05-10T13:30:12;5.10;;;3.27;;
21601;SDS011;10963;50.934;4.668;2023-05-10T13:32:38;4.87;;;3.50;;
21601;SDS011;10963;50.934;4.668;2023-05-10T13:35:04;4.60;;;3.20;;
21601;SDS011;10963;50.934;4.668;2023-05-10T13:37:30;7.23;;;3.23;;
21601;SDS011;10963;50.934;4.668;2023-05-10T13:39:57;4.43;;;3.07;;
21601;SDS011;10963;50.934;4.668;2023-05-10T13:42:22;4.83;;;2.83;;
21601;SDS011;10963;50.934;4.668;2023-05-10T13:44:51;5.90;;;3.03;;
21601;SDS011;10963;50.934;4.668;2023-05-10T13:47:16;3.73;;;2.60;;
21601;SDS011;10963;50.934;4.668;2023-05-10T13:49:42;4.23;;;3.17;;
21601;SDS011;10963;50.934;4.668;2023-05-10T13:52:10;5.03;;;3.20;;
21601;SDS011;10963;50.934;4.668;2023-05-10T13:54:38;4.20;;;3.33;;
21601;SDS011;10963;50.934;4.668;2023-05-10T13:57:06;6.50;;;2.90;;
21601;SDS011;10963;50.934;4.668;2023-05-10T13:59:36;6.23;;;3.23;;
21601;SDS011;10963;50.934;4.668;2023-05-10T14:02:02;3.33;;;2.53;;
21601;SDS011;10963;50.934;4.668;2023-05-10T14:04:30;2.97;;;2.50;;
21601;SDS011;10963;50.934;4.668;2023-05-10T14:07:00;4.13;;;2.90;;
21601;SDS011;10963;50.934;4.668;2023-05-10T14:09:28;4.77;;;3.00;;
21601;SDS011;10963;50.934;4.668;2023-05-10T14:11:54;6.13;;;3.43;;
21601;SDS011;10963;50.934;4.668;2023-05-10T14:14:22;6.23;;;3.40;;
21601;SDS011;10963;50.934;4.668;2023-05-10T14:16:48;6.30;;;3.93;;
21601;SDS011;10963;50.934;4.668;2023-05-10T14:19:14;6.53;;;3.53;;
21601;SDS011;10963;50.934;4.668;2023-05-10T14:21:42;5.17;;;4.03;;
21601;SDS011;10963;50.934;4.668;2023-05-10T14:24:08;6.23;;;4.10;;
21601;SDS011;10963;50.934;4.668;2023-05-10T14:26:33;6.13;;;3.83;;
21601;SDS011;10963;50.934;4.668;2023-05-10T14:29:04;6.07;;;4.13;;
21601;SDS011;10963;50.934;4.668;2023-05-10T14:31:34;5.83;;;3.60;;
21601;SDS011;10963;50.934;4.668;2023-05-10T14:34:02;4.77;;;3.50;;
21601;SDS011;10963;50.934;4.668;2023-05-10T14:36:30;6.73;;;3.60;;
21601;SDS011;10963;50.934;4.668;2023-05-10T14:38:56;6.60;;;3.90;;
21601;SDS011;10963;50.934;4.668;2023-05-10T14:41:22;4.47;;;3.10;;
21601;SDS011;10963;50.934;4.668;2023-05-10T14:43:48;5.10;;;3.53;;
21601;SDS011;10963;50.934;4.668;2023-05-10T14:46:16;5.00;;;3.40;;
21601;SDS011;10963;50.934;4.668;2023-05-10T14:48:44;5.83;;;3.73;;
21601;SDS011;10963;50.934;4.668;2023-05-10T14:51:10;7.47;;;3.77;;
21601;SDS011;10963;50.934;4.668;2023-05-10T14:53:38;5.77;;;3.53;;
21601;SDS011;10963;50.934;4.668;2023-05-10T14:56:04;6.87;;;4.00;;
21601;SDS011;10963;50.934;4.668;2023-05-10T14:58:30;6.70;;;4.17;;
21601;SDS011;10963;50.934;4.668;2023-05-10T15:00:56;6.70;;;3.73;;
21601;SDS011;10963;50.934;4.668;2023-05-10T15:03:24;6.03;;;3.70;;
21601;SDS011;10963;50.934;4.668;2023-05-10T15:05:50;7.40;;;5.17;;
21601;SDS011;10963;50.934;4.668;2023-05-10T15:08:16;7.63;;;4.70;;
21601;SDS011;10963;50.934;4.668;2023-05-10T15:10:42;12.07;;;6.60;;
21601;SDS011;10963;50.934;4.668;2023-05-10T15:13:07;12.00;;;6.70;;
21601;SDS011;10963;50.934;4.668;2023-05-10T15:15:33;12.77;;;7.13;;
21601;SDS011;10963;50.934;4.668;2023-05-10T15:17:59;11.57;;;7.27;;
21601;SDS011;10963;50.934;4.668;2023-05-10T15:20:27;15.63;;;7.43;;
21601;SDS011;10963;50.934;4.668;2023-05-10T15:22:52;14.53;;;7.97;;
21601;SDS011;10963;50.934;4.668;2023-05-10T15:25:20;12.40;;;7.07;;
21601;SDS011;10963;50.934;4.668;2023-05-10T15:27:47;14.07;;;7.77;;
21601;SDS011;10963;50.934;4.668;2023-05-10T15:30:13;11.97;;;6.50;;
21601;SDS011;10963;50.934;4.668;2023-05-10T15:32:39;17.13;;;7.07;;
21601;SDS011;10963;50.934;4.668;2023-05-10T15:35:12;12.90;;;7.70;;